Time;durP1;ratioP1;P1;durP2;ratioP2;P2;SDS_P1;SDS_P2;PMS_P1;PMS_P2;Temp;Humidity;BMP_temperature;BMP_pressure;BME280_temperature;BME280_humidity;BME280_pressure;Samples;Min_cycle;Max_cycle;Signal;HPM_P1;HPM_P2
2021/05/31 00:01:17;;;;;;;;;;;19.30;50.10;;;;;;461514;258;1060;-44
2021/05/31 00:03:18;;;;;;;;;;;19.20;50.20;;;;;;461549;258;1343;-44
2021/05/31 00:05:24;;;;;;;;;;;19.20;50.30;;;;;;461211;258;1131;-44
2021/05/31 00:07:22;;;;;;;;;;;19.20;50.40;;;;;;461158;258;2203;-44
2021/05/31 00:09:24;;;;;;;;;;;19.10;50.50;;;;;;461199;258;1189;-44
2021/05/31 00:11:25;;;;;;;;;;;19.10;50.60;;;;;;461176;258;2208;-44
2021/05/31 00:13:27;;;;;;;;;;;19.10;50.60;;;;;;461516;258;1013;-44
2021/05/31 00:15:28;;;;;;;;;;;19.00;50.70;;;;;;461289;258;1080;-44
2021/05/31 00:17:29;;;;;;;;;;;19.00;50.90;;;;;;461038;258;1151;-44
2021/05/31 00:19:30;;;;;;;;;;;18.90;50.90;;;;;;461083;258;1087;-44
2021/05/31 00:21:31;;;;;;;;;;;18.90;50.90;;;;;;461441;258;1407;-44
2021/05/31 00:23:33;;;;;;;;;;;18.90;50.90;;;;;;461451;258;1191;-44
2021/05/31 00:25:34;;;;;;;;;;;18.90;50.90;;;;;;461609;258;1093;-44
2021/05/31 00:27:35;;;;;;;;;;;18.80;51.00;;;;;;461124;258;1103;-44
2021/05/31 00:29:37;;;;;;;;;;;18.80;51.00;;;;;;461620;258;1059;-44
2021/05/31 00:31:38;;;;;;;;;;;18.80;51.10;;;;;;461417;258;2149;-44
2021/05/31 00:33:40;;;;;;;;;;;18.80;51.20;;;;;;461518;258;1205;-44
2021/05/31 00:35:40;;;;;;;;;;;18.70;51.20;;;;;;461242;258;2189;-44
2021/05/31 00:37:42;;;;;;;;;;;18.70;51.20;;;;;;461135;258;1056;-44
2021/05/31 00:39:43;;;;;;;;;;;18.70;51.20;;;;;;461243;258;1192;-44
2021/05/31 00:41:47;;;;;;;;;;;18.70;51.30;;;;;;461098;258;1486;-44
2021/05/31 00:43:45;;;;;;;;;;;18.70;51.40;;;;;;461120;258;2309;-44
2021/05/31 00:45:47;;;;;;;;;;;18.70;51.40;;;;;;461050;258;1388;-44
2021/05/31 00:47:48;;;;;;;;;;;18.70;51.40;;;;;;461572;258;1163;-44
2021/05/31 00:49:49;;;;;;;;;;;18.70;51.40;;;;;;461193;258;1125;-44
2021/05/31 00:51:51;;;;;;;;;;;18.70;51.40;;;;;;461173;258;2138;-44
2021/05/31 00:53:52;;;;;;;;;;;18.60;51.30;;;;;;461163;258;1150;-44
2021/05/31 00:55:53;;;;;;;;;;;18.60;51.40;;;;;;461148;258;1365;-44
2021/05/31 00:57:54;;;;;;;;;;;18.60;51.40;;;;;;461064;258;1183;-44
2021/05/31 00:59:56;;;;;;;;;;;18.60;51.40;;;;;;461453;258;1055;-45
2021/05/31 01:01:57;;;;;;;;;;;18.60;51.40;;;;;;461481;258;1278;-44
2021/05/31 01:03:58;;;;;;;;;;;18.60;51.40;;;;;;461413;258;1050;-44
2021/05/31 01:06:01;;;;;;;;;;;18.60;51.50;;;;;;461466;258;1188;-44
2021/05/31 01:08:01;;;;;;;;;;;18.60;51.50;;;;;;461293;258;2211;-44
2021/05/31 01:10:03;;;;;;;;;;;18.60;51.50;;;;;;461200;258;1146;-45
2021/05/31 01:12:04;;;;;;;;;;;19.00;50.60;;;;;;461066;258;2204;-45
2021/05/31 01:14:05;;;;;;;;;;;19.30;49.40;;;;;;461192;258;1046;-45
2021/05/31 01:16:07;;;;;;;;;;;19.70;48.50;;;;;;461387;258;1216;-45
2021/05/31 01:18:08;;;;;;;;;;;19.90;47.90;;;;;;461156;258;1101;-44
2021/05/31 01:20:09;;;;;;;;;;;20.10;47.40;;;;;;461264;258;1063;-45
2021/05/31 01:22:10;;;;;;;;;;;20.20;47.00;;;;;;461560;258;1216;-45
2021/05/31 01:24:12;;;;;;;;;;;20.40;46.70;;;;;;461241;258;1262;-44
2021/05/31 01:26:13;;;;;;;;;;;20.50;46.50;;;;;;461571;258;1189;-45
2021/05/31 01:28:14;;;;;;;;;;;20.50;46.30;;;;;;461529;258;1256;-44
2021/05/31 01:30:21;;;;;;;;;;;20.60;46.10;;;;;;461173;258;1117;-45
2021/05/31 01:32:17;;;;;;;;;;;20.70;46.00;;;;;;460766;258;2200;-44
2021/05/31 01:34:18;;;;;;;;;;;20.70;45.90;;;;;;461276;258;1136;-45
2021/05/31 01:36:19;;;;;;;;;;;20.70;45.80;;;;;;461390;258;1289;-44
2021/05/31 01:38:21;;;;;;;;;;;20.80;45.70;;;;;;461178;258;1081;-44
2021/05/31 01:40:23;;;;;;;;;;;20.90;45.60;;;;;;461248;258;1203;-45
2021/05/31 01:42:24;;;;;;;;;;;20.90;45.50;;;;;;461254;258;1318;-45
2021/05/31 01:44:26;;;;;;;;;;;20.90;45.30;;;;;;461318;258;1076;-45
2021/05/31 01:46:26;;;;;;;;;;;21.00;45.30;;;;;;461032;258;1337;-45
2021/05/31 01:48:28;;;;;;;;;;;21.00;45.30;;;;;;461163;258;1057;-45
2021/05/31 01:50:29;;;;;;;;;;;21.00;45.10;;;;;;461153;258;1164;-45
2021/05/31 01:52:30;;;;;;;;;;;21.10;45.10;;;;;;461044;258;2172;-45
2021/05/31 01:54:32;;;;;;;;;;;21.10;45.10;;;;;;461167;258;1169;-45
2021/05/31 01:56:33;;;;;;;;;;;21.10;45.00;;;;;;461283;258;1215;-45
2021/05/31 01:58:34;;;;;;;;;;;21.10;44.90;;;;;;461109;258;1085;-44
2021/05/31 02:00:35;;;;;;;;;;;21.20;44.90;;;;;;461166;258;1255;-45
2021/05/31 02:02:37;;;;;;;;;;;21.20;44.90;;;;;;461058;258;1093;-45
2021/05/31 02:04:38;;;;;;;;;;;21.20;44.80;;;;;;461430;258;1156;-45
2021/05/31 02:06:39;;;;;;;;;;;21.30;44.80;;;;;;461106;258;1379;-45
2021/05/31 02:08:40;;;;;;;;;;;21.30;44.70;;;;;;461585;258;1257;-45
2021/05/31 02:10:42;;;;;;;;;;;21.30;44.60;;;;;;461378;258;1179;-45
2021/05/31 02:12:43;;;;;;;;;;;21.30;44.60;;;;;;461570;258;2168;-45
2021/05/31 02:14:44;;;;;;;;;;;21.40;44.60;;;;;;461477;258;1043;-45
2021/05/31 02:16:46;;;;;;;;;;;21.40;44.50;;;;;;461152;258;1127;-45
2021/05/31 02:18:47;;;;;;;;;;;21.40;44.50;;;;;;461578;258;1080;-44
2021/05/31 02:20:48;;;;;;;;;;;21.40;44.40;;;;;;461156;258;1078;-44
2021/05/31 02:22:49;;;;;;;;;;;21.40;44.40;;;;;;461180;258;1174;-45
2021/05/31 02:24:51;;;;;;;;;;;21.40;44.40;;;;;;461360;258;1348;-45
2021/05/31 02:26:52;;;;;;;;;;;21.50;44.30;;;;;;461064;258;1091;-45
2021/05/31 02:28:53;;;;;;;;;;;21.50;44.30;;;;;;461435;258;1066;-45
2021/05/31 02:30:55;;;;;;;;;;;21.50;44.30;;;;;;461514;258;1375;-44
2021/05/31 02:32:56;;;;;;;;;;;21.50;44.20;;;;;;461532;258;2164;-45
2021/05/31 02:34:57;;;;;;;;;;;21.50;44.20;;;;;;461376;258;1051;-45
2021/05/31 02:36:58;;;;;;;;;;;21.50;44.20;;;;;;461156;258;1063;-45
2021/05/31 02:39:00;;;;;;;;;;;21.50;44.20;;;;;;461547;258;1087;-45
2021/05/31 02:41:01;;;;;;;;;;;21.60;44.20;;;;;;461364;258;1300;-44
2021/05/31 02:43:02;;;;;;;;;;;21.60;44.10;;;;;;461549;258;1081;-45
2021/05/31 02:45:03;;;;;;;;;;;21.60;44.00;;;;;;461563;258;1101;-45
2021/05/31 02:47:05;;;;;;;;;;;21.60;44.00;;;;;;461290;258;1070;-45
2021/05/31 02:49:07;;;;;;;;;;;21.70;44.00;;;;;;461450;258;1076;-44
2021/05/31 02:51:08;;;;;;;;;;;21.70;44.00;;;;;;461056;258;1326;-44
2021/05/31 02:53:10;;;;;;;;;;;21.70;44.00;;;;;;461440;258;2203;-45
2021/05/31 02:55:11;;;;;;;;;;;21.70;44.00;;;;;;461082;258;1111;-45
2021/05/31 02:57:12;;;;;;;;;;;21.70;44.00;;;;;;460997;258;1340;-45
2021/05/31 02:59:14;;;;;;;;;;;21.70;43.90;;;;;;461219;258;1097;-44
2021/05/31 03:01:16;;;;;;;;;;;21.70;43.90;;;;;;461140;258;1384;-45
2021/05/31 03:03:17;;;;;;;;;;;21.70;43.90;;;;;;461111;258;1288;-44
2021/05/31 03:05:18;;;;;;;;;;;21.70;43.90;;;;;;461313;258;1132;-45
2021/05/31 03:07:19;;;;;;;;;;;21.70;43.90;;;;;;461357;258;1337;-45
2021/05/31 03:09:21;;;;;;;;;;;21.70;43.90;;;;;;461475;258;1063;-45
2021/05/31 03:11:22;;;;;;;;;;;21.80;44.00;;;;;;461343;258;1278;-45
2021/05/31 03:13:23;;;;;;;;;;;21.70;43.90;;;;;;461083;258;2204;-45
2021/05/31 03:15:26;;;;;;;;;;;21.80;43.90;;;;;;461047;258;1522;-45
2021/05/31 03:17:26;;;;;;;;;;;21.80;43.90;;;;;;461410;258;2571;-45
2021/05/31 03:19:27;;;;;;;;;;;21.80;43.90;;;;;;461176;258;1090;-45
2021/05/31 03:21:28;;;;;;;;;;;21.80;43.90;;;;;;461147;258;1680;-44
2021/05/31 03:23:29;;;;;;;;;;;21.80;43.90;;;;;;461027;258;1196;-44
2021/05/31 03:25:31;;;;;;;;;;;21.80;43.90;;;;;;461466;258;1201;-45
2021/05/31 03:27:32;;;;;;;;;;;21.80;43.90;;;;;;461098;258;1508;-45
2021/05/31 03:29:33;;;;;;;;;;;21.80;43.80;;;;;;461402;258;1104;-45
2021/05/31 03:31:35;;;;;;;;;;;21.80;43.90;;;;;;461183;258;1680;-45
2021/05/31 03:33:36;;;;;;;;;;;21.80;43.90;;;;;;461122;258;2196;-45
2021/05/31 03:35:37;;;;;;;;;;;21.80;43.90;;;;;;461153;258;1388;-45
2021/05/31 03:37:38;;;;;;;;;;;21.90;43.90;;;;;;461454;258;1328;-44
2021/05/31 03:39:40;;;;;;;;;;;21.80;43.80;;;;;;461501;258;1119;-45
2021/05/31 03:41:41;;;;;;;;;;;21.90;43.80;;;;;;461335;258;1315;-45
2021/05/31 03:43:42;;;;;;;;;;;21.90;43.80;;;;;;461300;258;1096;-45
2021/05/31 03:45:43;;;;;;;;;;;21.90;43.80;;;;;;461429;258;1394;-45
2021/05/31 03:47:45;;;;;;;;;;;21.80;43.80;;;;;;460996;258;1394;-45
2021/05/31 03:49:47;;;;;;;;;;;21.40;44.60;;;;;;461108;258;1059;-45
2021/05/31 03:51:47;;;;;;;;;;;20.90;45.90;;;;;;461156;258;1559;-44
2021/05/31 03:53:49;;;;;;;;;;;20.50;46.90;;;;;;461307;258;2137;-44
2021/05/31 03:55:50;;;;;;;;;;;20.20;47.60;;;;;;461264;258;1446;-44
2021/05/31 03:57:51;;;;;;;;;;;20.00;48.30;;;;;;461177;258;1484;-44
2021/05/31 03:59:53;;;;;;;;;;;19.80;48.60;;;;;;461208;258;1106;-44
2021/05/31 04:01:54;;;;;;;;;;;19.70;48.90;;;;;;461520;258;1356;-44
2021/05/31 04:03:55;;;;;;;;;;;19.60;49.20;;;;;;461130;258;1065;-44
2021/05/31 04:06:05;;;;;;;;;;;19.50;49.40;;;;;;461054;258;1108;-44
2021/05/31 04:12:41;;;;;;;;;;;19.40;49.90;;;;;;461222;258;2173;-45
2021/05/31 04:14:43;;;;;;;;;;;19.30;50.00;;;;;;461028;258;1102;-44
2021/05/31 04:16:44;;;;;;;;;;;19.20;50.10;;;;;;461081;258;1185;-44
2021/05/31 04:18:45;;;;;;;;;;;19.20;50.20;;;;;;461154;258;1101;-44
2021/05/31 04:20:47;;;;;;;;;;;19.20;50.20;;;;;;461381;258;1202;-44
2021/05/31 04:22:48;;;;;;;;;;;19.10;50.30;;;;;;461487;258;1204;-44
2021/05/31 04:24:49;;;;;;;;;;;19.10;50.40;;;;;;461313;258;1101;-44
2021/05/31 04:26:50;;;;;;;;;;;19.10;50.50;;;;;;461179;258;1443;-44
2021/05/31 04:28:52;;;;;;;;;;;19.00;50.60;;;;;;461315;258;1224;-44
2021/05/31 04:30:53;;;;;;;;;;;19.00;50.80;;;;;;461477;258;1182;-44
2021/05/31 04:32:54;;;;;;;;;;;19.00;50.70;;;;;;461162;258;2145;-45
2021/05/31 04:34:56;;;;;;;;;;;19.00;50.60;;;;;;461035;258;1299;-45
2021/05/31 04:36:57;;;;;;;;;;;19.00;50.70;;;;;;460994;258;1084;-44
2021/05/31 04:38:58;;;;;;;;;;;19.00;50.70;;;;;;461098;258;1088;-45
2021/05/31 04:40:59;;;;;;;;;;;18.90;50.80;;;;;;460973;258;1084;-44
2021/05/31 04:43:01;;;;;;;;;;;18.90;50.90;;;;;;461106;258;1164;-45
2021/05/31 04:45:02;;;;;;;;;;;18.90;50.80;;;;;;461052;258;1408;-44
2021/05/31 04:47:04;;;;;;;;;;;18.80;50.80;;;;;;461340;258;1095;-44
2021/05/31 04:49:05;;;;;;;;;;;18.80;50.90;;;;;;461256;258;1110;-44
2021/05/31 04:51:06;;;;;;;;;;;18.80;50.80;;;;;;460823;258;1372;-44
2021/05/31 04:53:07;;;;;;;;;;;18.80;51.00;;;;;;461153;258;2205;-44
2021/05/31 04:55:14;;;;;;;;;;;18.70;51.10;;;;;;461076;258;1124;-44
2021/05/31 04:57:10;;;;;;;;;;;18.70;51.30;;;;;;460548;258;1474;-44
2021/05/31 04:59:13;;;;;;;;;;;18.60;51.30;;;;;;461244;258;1143;-44
2021/05/31 05:01:13;;;;;;;;;;;18.60;51.30;;;;;;460857;258;2353;-45
2021/05/31 05:03:14;;;;;;;;;;;18.60;51.40;;;;;;461275;258;1073;-45
2021/05/31 05:05:15;;;;;;;;;;;18.60;51.40;;;;;;460930;258;1114;-44
2021/05/31 05:07:18;;;;;;;;;;;18.60;51.40;;;;;;461098;258;1235;-44
2021/05/31 05:09:18;;;;;;;;;;;18.60;51.40;;;;;;461047;258;1844;-44
2021/05/31 05:11:19;;;;;;;;;;;18.60;51.40;;;;;;460927;258;1747;-44
2021/05/31 05:13:20;;;;;;;;;;;18.60;51.40;;;;;;461109;258;2213;-44
2021/05/31 05:15:22;;;;;;;;;;;18.60;51.40;;;;;;460828;258;1244;-44
2021/05/31 05:17:23;;;;;;;;;;;18.50;51.40;;;;;;460807;258;1451;-44
2021/05/31 05:19:24;;;;;;;;;;;18.50;51.40;;;;;;460984;258;1086;-44
2021/05/31 05:21:25;;;;;;;;;;;18.50;51.40;;;;;;461003;258;1289;-44
2021/05/31 05:23:27;;;;;;;;;;;18.50;51.40;;;;;;460872;258;1165;-44
2021/05/31 05:25:28;;;;;;;;;;;18.50;51.50;;;;;;461191;258;1107;-44
2021/05/31 05:27:29;;;;;;;;;;;18.50;51.50;;;;;;460830;258;1116;-44
2021/05/31 05:29:31;;;;;;;;;;;18.50;51.50;;;;;;460888;258;1203;-44
2021/05/31 05:31:32;;;;;;;;;;;18.50;51.50;;;;;;460870;258;1159;-45
2021/05/31 05:33:34;;;;;;;;;;;18.60;51.40;;;;;;460859;258;2177;-44
2021/05/31 05:35:36;;;;;;;;;;;19.00;50.20;;;;;;461192;258;2684;-44
2021/05/31 05:37:42;;;;;;;;;;;19.40;49.10;;;;;;460739;258;2138;-44
2021/05/31 05:39:51;;;;;;;;;;;19.70;48.30;;;;;;460491;258;2277;-44
2021/05/31 05:42:04;;;;;;;;;;;19.90;47.80;;;;;;460547;258;1930;-45
2021/05/31 05:44:20;;;;;;;;;;;20.10;47.30;;;;;;460368;258;2063;-45
2021/05/31 05:48:33;;;;;;;;;;;20.40;46.60;;;;;;460685;258;1255;-45
2021/05/31 05:50:34;;;;;;;;;;;20.40;46.30;;;;;;460724;258;1177;-45
2021/05/31 05:52:36;;;;;;;;;;;20.50;46.20;;;;;;460937;258;1217;-45
2021/05/31 05:54:37;;;;;;;;;;;20.60;46.10;;;;;;460691;258;2192;-44
2021/05/31 05:56:39;;;;;;;;;;;20.60;45.90;;;;;;460734;258;1383;-44
2021/05/31 05:58:40;;;;;;;;;;;20.70;45.90;;;;;;460867;258;1194;-45
2021/05/31 06:00:41;;;;;;;;;;;20.70;45.80;;;;;;460837;258;1407;-44
2021/05/31 06:02:43;;;;;;;;;;;20.80;45.70;;;;;;460856;258;1144;-45
2021/05/31 06:04:44;;;;;;;;;;;20.80;45.60;;;;;;460836;258;1100;-45
2021/05/31 06:06:45;;;;;;;;;;;20.80;45.50;;;;;;460856;258;2315;-44
2021/05/31 06:08:46;;;;;;;;;;;20.90;45.40;;;;;;460664;258;1105;-45
2021/05/31 06:10:48;;;;;;;;;;;20.90;45.30;;;;;;460879;258;1202;-44
2021/05/31 06:12:49;;;;;;;;;;;20.90;45.20;;;;;;460916;258;2165;-45
2021/05/31 06:14:50;;;;;;;;;;;21.00;45.10;;;;;;460689;258;1752;-45
2021/05/31 06:16:52;;;;;;;;;;;21.00;45.10;;;;;;460581;258;1131;-44
2021/05/31 06:18:53;;;;;;;;;;;21.00;45.10;;;;;;460758;258;1186;-45
2021/05/31 06:20:55;;;;;;;;;;;21.10;45.10;;;;;;460455;258;1239;-45
2021/05/31 06:22:56;;;;;;;;;;;21.10;45.00;;;;;;460449;258;1183;-45
2021/05/31 06:24:57;;;;;;;;;;;21.10;44.90;;;;;;460439;258;1982;-44
2021/05/31 06:26:58;;;;;;;;;;;21.20;44.90;;;;;;460586;258;1289;-44
2021/05/31 06:29:00;;;;;;;;;;;21.20;44.80;;;;;;460878;258;1151;-45
2021/05/31 06:31:01;;;;;;;;;;;21.20;44.80;;;;;;460575;258;1362;-44
2021/05/31 06:33:03;;;;;;;;;;;21.20;44.70;;;;;;460556;258;2204;-44
2021/05/31 06:35:04;;;;;;;;;;;21.20;44.70;;;;;;460462;258;1119;-45
2021/05/31 06:37:05;;;;;;;;;;;21.30;44.60;;;;;;460570;258;1186;-44
2021/05/31 06:39:07;;;;;;;;;;;21.30;44.60;;;;;;460557;258;1147;-45
2021/05/31 06:41:08;;;;;;;;;;;21.30;44.50;;;;;;460634;258;1388;-44
2021/05/31 06:43:10;;;;;;;;;;;21.30;44.50;;;;;;460459;258;1319;-45
2021/05/31 06:45:11;;;;;;;;;;;21.40;44.40;;;;;;460413;258;1191;-45
2021/05/31 06:47:12;;;;;;;;;;;21.40;44.30;;;;;;460442;258;1317;-44
2021/05/31 06:49:13;;;;;;;;;;;21.40;44.30;;;;;;460502;258;1215;-45
2021/05/31 06:51:15;;;;;;;;;;;21.50;44.30;;;;;;460376;258;1360;-45
2021/05/31 06:53:17;;;;;;;;;;;21.50;44.30;;;;;;460404;258;2200;-44
2021/05/31 06:55:17;;;;;;;;;;;21.50;44.30;;;;;;460117;258;1805;-45
2021/05/31 06:57:19;;;;;;;;;;;21.50;44.20;;;;;;460351;258;1301;-45
2021/05/31 06:59:20;;;;;;;;;;;21.50;44.10;;;;;;460302;258;1229;-45
2021/05/31 07:01:21;;;;;;;;;;;21.50;44.10;;;;;;460427;258;1113;-45
2021/05/31 07:03:23;;;;;;;;;;;21.60;44.10;;;;;;460410;258;1118;-44
2021/05/31 07:05:24;;;;;;;;;;;21.60;44.10;;;;;;460313;258;1596;-44
2021/05/31 07:07:25;;;;;;;;;;;21.60;44.00;;;;;;460339;258;1136;-45
2021/05/31 07:09:26;;;;;;;;;;;21.60;44.10;;;;;;460462;258;1141;-44
2021/05/31 07:11:28;;;;;;;;;;;21.60;44.00;;;;;;460434;258;1128;-45
2021/05/31 07:13:30;;;;;;;;;;;21.60;44.00;;;;;;460572;258;2200;-45
2021/05/31 07:15:32;;;;;;;;;;;21.60;43.90;;;;;;460442;258;1260;-45
2021/05/31 07:17:32;;;;;;;;;;;21.70;44.00;;;;;;460215;258;2369;-45
2021/05/31 07:19:33;;;;;;;;;;;21.70;43.90;;;;;;460482;258;1326;-45
2021/05/31 07:21:34;;;;;;;;;;;21.70;43.90;;;;;;460443;258;1205;-45
2021/05/31 07:23:37;;;;;;;;;;;21.70;43.90;;;;;;460391;258;1119;-45
2021/05/31 07:25:38;;;;;;;;;;;21.70;43.90;;;;;;460347;258;1463;-45
2021/05/31 07:27:39;;;;;;;;;;;21.70;43.80;;;;;;460410;258;1169;-45
2021/05/31 07:29:40;;;;;;;;;;;21.70;43.90;;;;;;460326;258;1187;-45
2021/05/31 07:31:41;;;;;;;;;;;21.80;43.90;;;;;;460305;258;1386;-45
2021/05/31 07:33:43;;;;;;;;;;;21.80;43.80;;;;;;460254;258;2208;-45
2021/05/31 07:35:44;;;;;;;;;;;21.80;43.80;;;;;;460253;258;1287;-45
2021/05/31 07:37:45;;;;;;;;;;;21.80;43.80;;;;;;460312;258;1239;-45
2021/05/31 07:39:47;;;;;;;;;;;21.80;43.80;;;;;;460424;258;1321;-44
2021/05/31 07:41:49;;;;;;;;;;;21.80;43.70;;;;;;460523;258;1345;-45
2021/05/31 07:43:50;;;;;;;;;;;21.80;43.70;;;;;;460870;258;1165;-45
2021/05/31 07:45:51;;;;;;;;;;;21.80;43.70;;;;;;460516;258;1231;-45
2021/05/31 07:47:54;;;;;;;;;;;21.90;43.70;;;;;;460603;258;1209;-45
2021/05/31 07:49:55;;;;;;;;;;;21.90;43.70;;;;;;460419;258;1136;-45
2021/05/31 07:52:06;;;;;;;;;;;21.90;43.70;;;;;;460366;258;1254;-45
2021/05/31 07:53:58;;;;;;;;;;;21.90;43.70;;;;;;459772;258;2220;-45
2021/05/31 07:55:59;;;;;;;;;;;21.90;43.70;;;;;;460324;258;1255;-45
2021/05/31 07:58:01;;;;;;;;;;;21.90;43.70;;;;;;460228;258;1167;-44
2021/05/31 08:00:03;;;;;;;;;;;21.90;43.70;;;;;;460142;258;1568;-45
2021/05/31 08:02:03;;;;;;;;;;;21.90;43.70;;;;;;460620;258;2185;-44
2021/05/31 08:04:06;;;;;;;;;;;21.90;43.60;;;;;;461184;257;988;-44
2021/05/31 08:06:06;;;;;;;;;;;21.90;43.60;;;;;;460981;258;2162;-45
2021/05/31 08:08:07;;;;;;;;;;;21.90;43.60;;;;;;461059;258;876;-45
2021/05/31 08:10:08;;;;;;;;;;;22.00;43.60;;;;;;461147;258;880;-45
2021/05/31 08:12:10;;;;;;;;;;;21.90;43.60;;;;;;461011;258;1414;-45
2021/05/31 08:14:11;;;;;;;;;;;21.90;43.70;;;;;;460535;258;2287;-45
2021/05/31 08:16:16;;;;;;;;;;;22.00;43.60;;;;;;460710;258;1408;-44
2021/05/31 08:18:14;;;;;;;;;;;21.80;43.80;;;;;;460244;258;2035;-45
2021/05/31 08:20:15;;;;;;;;;;;21.30;44.80;;;;;;459860;258;1131;-44
2021/05/31 08:22:16;;;;;;;;;;;20.80;46.00;;;;;;459890;258;1318;-45
2021/05/31 08:24:19;;;;;;;;;;;20.40;47.20;;;;;;459968;258;1254;-45
2021/05/31 08:26:20;;;;;;;;;;;20.10;48.80;;;;;;460121;258;2066;-44
2021/05/31 08:28:21;;;;;;;;;;;19.90;49.40;;;;;;460580;258;2211;-44
2021/05/31 08:30:22;;;;;;;;;;;19.80;50.00;;;;;;460694;258;1258;-44
2021/05/31 08:32:23;;;;;;;;;;;19.70;50.50;;;;;;461028;258;1133;-44
2021/05/31 08:34:26;;;;;;;;;;;19.60;50.80;;;;;;460517;258;2208;-44
2021/05/31 08:36:26;;;;;;;;;;;19.50;51.20;;;;;;460065;258;2334;-44
2021/05/31 08:38:27;;;;;;;;;;;19.50;51.40;;;;;;460231;258;1193;-44
2021/05/31 08:40:29;;;;;;;;;;;19.50;51.60;;;;;;460210;258;1201;-44
2021/05/31 08:42:30;;;;;;;;;;;19.40;51.80;;;;;;460224;258;1120;-44
2021/05/31 08:44:31;;;;;;;;;;;19.30;51.80;;;;;;460195;256;1403;-44
2021/05/31 08:46:33;;;;;;;;;;;19.30;52.00;;;;;;460228;258;1352;-44
2021/05/31 08:48:34;;;;;;;;;;;19.20;52.00;;;;;;460282;258;1233;-44
2021/05/31 08:50:36;;;;;;;;;;;19.20;52.10;;;;;;460212;258;1212;-44
2021/05/31 08:52:37;;;;;;;;;;;19.10;52.20;;;;;;460193;258;1110;-44
2021/05/31 08:54:38;;;;;;;;;;;19.10;52.30;;;;;;460212;258;2200;-45
2021/05/31 08:56:39;;;;;;;;;;;19.10;52.30;;;;;;460328;258;1480;-44
2021/05/31 08:58:41;;;;;;;;;;;19.00;52.20;;;;;;460373;258;1228;-44
2021/05/31 09:00:42;;;;;;;;;;;19.00;52.30;;;;;;460381;258;1172;-44
2021/05/31 09:02:44;;;;;;;;;;;19.00;52.30;;;;;;460149;258;1285;-45
2021/05/31 09:04:45;;;;;;;;;;;19.00;52.30;;;;;;460136;258;1206;-44
2021/05/31 09:06:46;;;;;;;;;;;19.00;52.30;;;;;;460105;258;1257;-44
2021/05/31 09:08:47;;;;;;;;;;;19.00;52.40;;;;;;460066;258;1227;-44
2021/05/31 09:10:52;;;;;;;;;;;18.90;52.50;;;;;;460224;258;1407;-44
2021/05/31 09:12:50;;;;;;;;;;;18.80;52.50;;;;;;459949;259;2282;-45
2021/05/31 09:14:52;;;;;;;;;;;18.80;52.50;;;;;;460287;258;2204;-44
2021/05/31 09:16:53;;;;;;;;;;;18.80;52.50;;;;;;460203;258;1235;-44
2021/05/31 09:18:54;;;;;;;;;;;18.80;52.70;;;;;;460286;258;1152;-44
2021/05/31 09:20:57;;;;;;;;;;;18.70;52.60;;;;;;460203;258;1341;-44
2021/05/31 09:22:57;;;;;;;;;;;18.80;52.60;;;;;;460202;258;2285;-44
2021/05/31 09:24:58;;;;;;;;;;;18.70;52.60;;;;;;460708;253;1337;-44
2021/05/31 09:27:00;;;;;;;;;;;18.70;52.60;;;;;;460275;258;1234;-44
2021/05/31 09:29:01;;;;;;;;;;;18.70;52.70;;;;;;460249;258;1166;-44
2021/05/31 09:31:02;;;;;;;;;;;18.70;52.60;;;;;;460149;258;1233;-44
2021/05/31 09:33:04;;;;;;;;;;;18.70;52.70;;;;;;460227;258;1358;-44
2021/05/31 09:35:05;;;;;;;;;;;18.60;52.70;;;;;;460186;258;2223;-44
2021/05/31 09:37:06;;;;;;;;;;;18.60;52.70;;;;;;460081;258;1228;-44
2021/05/31 09:39:08;;;;;;;;;;;18.60;52.60;;;;;;460162;258;1274;-44
2021/05/31 09:41:09;;;;;;;;;;;18.60;52.60;;;;;;460140;258;1261;-44
2021/05/31 09:43:11;;;;;;;;;;;18.60;52.60;;;;;;460084;258;1234;-44
2021/05/31 09:45:11;;;;;;;;;;;18.60;52.70;;;;;;460169;258;1779;-44
2021/05/31 09:47:13;;;;;;;;;;;18.60;52.70;;;;;;460205;258;1227;-44
2021/05/31 09:49:14;;;;;;;;;;;18.50;52.70;;;;;;460262;258;1219;-44
2021/05/31 09:51:15;;;;;;;;;;;18.50;52.80;;;;;;460244;258;1172;-45
2021/05/31 09:53:17;;;;;;;;;;;18.50;52.70;;;;;;460209;258;1136;-44
2021/05/31 09:55:18;;;;;;;;;;;18.50;52.80;;;;;;460159;258;2173;-44
2021/05/31 09:57:19;;;;;;;;;;;18.40;52.70;;;;;;460344;258;1138;-44
2021/05/31 09:59:25;;;;;;;;;;;18.50;52.70;;;;;;460201;258;1275;-44
2021/05/31 10:01:22;;;;;;;;;;;18.70;52.50;;;;;;460018;259;1556;-44
2021/05/31 10:03:31;;;;;;;;;;;19.10;51.30;;;;;;460829;258;1180;-44
2021/05/31 10:05:32;;;;;;;;;;;19.50;50.20;;;;;;460852;253;1624;-45
2021/05/31 10:07:38;;;;;;;;;;;19.80;49.40;;;;;;460258;258;2163;-44
2021/05/31 10:09:38;;;;;;;;;;;20.00;48.80;;;;;;461069;258;1394;-44
2021/05/31 10:11:40;;;;;;;;;;;20.20;48.30;;;;;;460635;258;1051;-45
2021/05/31 10:13:42;;;;;;;;;;;20.30;47.90;;;;;;461096;258;951;-44
2021/05/31 10:15:42;;;;;;;;;;;20.40;47.60;;;;;;461044;258;2386;-45
2021/05/31 10:17:44;;;;;;;;;;;20.50;47.50;;;;;;460942;258;1098;-44
2021/05/31 10:19:45;;;;;;;;;;;20.50;47.30;;;;;;460537;258;1087;-44
2021/05/31 10:21:46;;;;;;;;;;;20.60;47.20;;;;;;460844;258;1356;-45
2021/05/31 10:23:47;;;;;;;;;;;20.60;47.00;;;;;;460192;258;1134;-45
2021/05/31 10:25:51;;;;;;;;;;;20.70;47.00;;;;;;460220;258;1341;-44
2021/05/31 10:27:50;;;;;;;;;;;20.70;46.80;;;;;;460075;258;1366;-44
2021/05/31 10:29:52;;;;;;;;;;;20.80;46.70;;;;;;460273;258;1143;-44
2021/05/31 10:31:53;;;;;;;;;;;20.80;46.50;;;;;;460303;258;1494;-45
2021/05/31 10:33:54;;;;;;;;;;;20.90;46.50;;;;;;460586;258;1171;-44
2021/05/31 10:36:00;;;;;;;;;;;20.90;46.40;;;;;;460603;258;2200;-44
2021/05/31 10:37:57;;;;;;;;;;;20.90;46.30;;;;;;460489;258;2135;-45
2021/05/31 10:39:58;;;;;;;;;;;20.90;46.20;;;;;;460699;258;905;-45
2021/05/31 10:41:59;;;;;;;;;;;21.00;46.10;;;;;;460682;258;900;-45
2021/05/31 10:44:01;;;;;;;;;;;21.00;46.00;;;;;;461048;258;910;-45
2021/05/31 10:46:02;;;;;;;;;;;21.00;46.00;;;;;;461031;258;900;-45
2021/05/31 10:48:03;;;;;;;;;;;21.00;46.00;;;;;;460981;258;1342;-45
2021/05/31 10:50:04;;;;;;;;;;;21.10;46.00;;;;;;460665;258;1262;-45
2021/05/31 10:52:06;;;;;;;;;;;21.10;45.90;;;;;;461063;258;997;-45
2021/05/31 10:54:07;;;;;;;;;;;21.10;45.80;;;;;;461018;258;964;-44
2021/05/31 10:56:09;;;;;;;;;;;21.10;45.70;;;;;;460559;258;2200;-45
2021/05/31 10:58:10;;;;;;;;;;;21.20;45.70;;;;;;460349;258;2320;-45
2021/05/31 11:00:11;;;;;;;;;;;21.20;45.60;;;;;;460440;258;919;-45
2021/05/31 11:02:12;;;;;;;;;;;21.20;45.60;;;;;;460751;258;1055;-45
2021/05/31 11:04:16;;;;;;;;;;;21.30;45.60;;;;;;460522;258;1207;-44
2021/05/31 11:06:16;;;;;;;;;;;21.20;45.50;;;;;;460790;258;2132;-44
2021/05/31 11:08:17;;;;;;;;;;;21.30;45.50;;;;;;460957;258;906;-45
2021/05/31 11:10:19;;;;;;;;;;;21.30;45.40;;;;;;460662;258;903;-44
2021/05/31 11:12:20;;;;;;;;;;;21.30;45.30;;;;;;460862;258;1135;-45
2021/05/31 11:14:21;;;;;;;;;;;21.40;45.40;;;;;;460123;258;1110;-44
2021/05/31 11:16:23;;;;;;;;;;;21.40;45.30;;;;;;460283;258;2113;-45
2021/05/31 11:18:32;;;;;;;;;;;21.40;45.30;;;;;;460295;258;1706;-45
2021/05/31 11:20:25;;;;;;;;;;;21.40;45.20;;;;;;459858;258;1519;-44
2021/05/31 11:22:27;;;;;;;;;;;21.50;45.20;;;;;;460404;258;1338;-44
2021/05/31 11:24:28;;;;;;;;;;;21.50;45.10;;;;;;460441;258;1305;-45
2021/05/31 11:26:29;;;;;;;;;;;21.50;45.10;;;;;;460238;258;1401;-45
2021/05/31 11:28:31;;;;;;;;;;;21.50;45.10;;;;;;460392;258;1371;-45
2021/05/31 11:30:32;;;;;;;;;;;21.50;45.10;;;;;;460250;258;1221;-45
2021/05/31 11:32:33;;;;;;;;;;;21.50;45.00;;;;;;460288;258;1354;-45
2021/05/31 11:34:34;;;;;;;;;;;21.50;45.00;;;;;;460323;258;2176;-45
2021/05/31 11:36:36;;;;;;;;;;;21.50;45.00;;;;;;460399;258;1124;-45
2021/05/31 11:38:37;;;;;;;;;;;21.60;44.90;;;;;;460545;258;1116;-44
2021/05/31 11:40:40;;;;;;;;;;;21.60;44.90;;;;;;460318;258;1168;-45
2021/05/31 11:42:40;;;;;;;;;;;21.60;45.00;;;;;;460442;258;2227;-45
2021/05/31 11:44:41;;;;;;;;;;;21.60;44.90;;;;;;460640;258;963;-45
2021/05/31 11:46:43;;;;;;;;;;;21.60;44.80;;;;;;460330;258;1339;-44
2021/05/31 11:48:44;;;;;;;;;;;21.60;44.80;;;;;;460345;258;1161;-45
2021/05/31 11:50:45;;;;;;;;;;;21.60;44.80;;;;;;460191;258;1200;-44
2021/05/31 11:52:46;;;;;;;;;;;21.60;44.80;;;;;;460221;258;1313;-45
2021/05/31 11:54:49;;;;;;;;;;;21.70;44.80;;;;;;460050;258;2216;-45
2021/05/31 11:56:49;;;;;;;;;;;21.70;44.70;;;;;;460117;258;2223;-45
2021/05/31 11:58:50;;;;;;;;;;;21.70;44.70;;;;;;460096;258;1267;-45
2021/05/31 12:00:52;;;;;;;;;;;21.70;44.70;;;;;;459798;258;1464;-45
2021/05/31 12:02:53;;;;;;;;;;;21.70;44.60;;;;;;459757;258;1205;-45
2021/05/31 12:04:54;;;;;;;;;;;21.70;44.60;;;;;;459990;258;1179;-45